Suez, Egypt
Current Conditions -  °F | °C
As of 11:30 PM on Monday 24 Nov 2014 (Local Time) from HECA Reporting Station
Clear Clear  
Wind Chill: 57°   Ceiling: Unl
Heat Index: 57°   Visibility: 4mi
Dew Point: 52°   Wind: 3mph
Humidity: 82%   Direction: 240°WSW
Pressure: 30"   Gusts: NA
Location:  29.58°N, 32.33°E
Report Text: HECA 242130Z 24003KT 6000 NSC 14/11 Q1016 NOSIG
Loading
Personal Weather Stations






























Interactive Weather Map New forecast layout! Learn more

10-Day Weather Forecast

Advertisements
Track Severe Weather on mobile